createdAt,value
2023-05-29T00:01:37.361Z,6.00
2023-05-29T00:04:38.236Z,7.00
2023-05-29T00:07:37.311Z,7.27
2023-05-29T00:10:37.321Z,6.80
2023-05-29T00:13:38.435Z,6.47
2023-05-29T00:16:37.355Z,6.67
2023-05-29T00:19:37.288Z,7.07
2023-05-29T00:22:37.234Z,7.20
2023-05-29T00:25:37.182Z,7.20
2023-05-29T00:28:37.206Z,7.07
2023-05-29T00:31:37.260Z,7.53
2023-05-29T00:34:42.620Z,7.27
2023-05-29T00:37:37.510Z,7.07
2023-05-29T00:40:37.239Z,6.60
2023-05-29T00:43:37.279Z,7.53
2023-05-29T00:46:37.463Z,7.13
2023-05-29T00:49:37.274Z,6.33
2023-05-29T00:52:37.233Z,6.60
2023-05-29T00:55:37.291Z,6.40
2023-05-29T00:58:39.257Z,6.73
2023-05-29T01:01:37.475Z,6.80
2023-05-29T01:04:37.612Z,6.33
2023-05-29T01:07:37.286Z,7.60
2023-05-29T01:10:37.307Z,7.07
2023-05-29T01:13:37.416Z,6.00
2023-05-29T01:16:37.313Z,6.00
2023-05-29T01:19:37.331Z,6.47
2023-05-29T01:22:37.265Z,6.67
2023-05-29T01:25:37.145Z,6.47
2023-05-29T01:28:37.377Z,7.13
2023-05-29T01:31:37.417Z,6.93
2023-05-29T01:34:37.308Z,7.67
2023-05-29T01:37:37.210Z,5.87
2023-05-29T01:40:37.376Z,6.80
2023-05-29T01:43:37.240Z,7.20
2023-05-29T01:46:37.266Z,5.67
2023-05-29T01:49:37.298Z,7.07
2023-05-29T01:52:37.249Z,6.00
2023-05-29T01:55:37.226Z,6.93
2023-05-29T01:58:37.207Z,6.40
2023-05-29T02:01:37.659Z,5.80
2023-05-29T02:04:37.718Z,6.67
2023-05-29T02:07:37.173Z,5.47
2023-05-29T02:10:37.307Z,7.13
2023-05-29T02:13:37.269Z,6.00
2023-05-29T02:16:37.329Z,5.47
2023-05-29T02:19:37.256Z,6.40
2023-05-29T02:22:37.385Z,6.73
2023-05-29T02:25:37.169Z,6.60
2023-05-29T02:28:37.250Z,6.40
2023-05-29T02:31:37.206Z,6.40
2023-05-29T02:34:37.216Z,6.60
2023-05-29T02:37:37.204Z,6.20
2023-05-29T02:40:37.170Z,7.13
2023-05-29T02:43:37.223Z,6.33
2023-05-29T02:46:37.571Z,6.80
2023-05-29T02:49:37.269Z,6.33
2023-05-29T02:52:37.258Z,6.07
2023-05-29T02:55:37.183Z,5.47
2023-05-29T02:58:37.156Z,6.40
2023-05-29T03:01:38.736Z,6.33
2023-05-29T03:04:37.872Z,6.53
2023-05-29T03:07:37.205Z,7.27
2023-05-29T03:10:37.177Z,6.27
2023-05-29T03:13:37.201Z,6.13
2023-05-29T03:16:37.454Z,6.27
2023-05-29T03:19:37.327Z,6.87
2023-05-29T03:22:37.435Z,6.20
2023-05-29T03:25:37.301Z,5.80
2023-05-29T03:28:37.234Z,5.20
2023-05-29T03:31:37.419Z,5.80
2023-05-29T03:34:37.135Z,4.93
2023-05-29T03:37:37.253Z,5.33
2023-05-29T03:40:37.242Z,5.40
2023-05-29T03:43:37.174Z,6.40
2023-05-29T03:46:37.317Z,5.87
2023-05-29T03:49:37.187Z,5.00
2023-05-29T03:52:37.180Z,5.13
2023-05-29T03:55:37.222Z,5.93
2023-05-29T03:58:37.170Z,5.60
2023-05-29T04:01:37.411Z,5.67
2023-05-29T04:04:38.107Z,5.07
2023-05-29T04:07:37.357Z,5.47
2023-05-29T04:10:37.195Z,5.13
2023-05-29T04:13:37.172Z,4.93
2023-05-29T04:16:37.383Z,5.73
2023-05-29T04:19:37.342Z,5.73
2023-05-29T04:22:37.177Z,4.73
2023-05-29T04:25:37.161Z,5.53
2023-05-29T04:28:37.247Z,5.27
2023-05-29T04:31:37.407Z,3.80
2023-05-29T04:34:37.245Z,5.00
2023-05-29T04:37:37.317Z,5.27
2023-05-29T04:40:37.168Z,4.67
2023-05-29T04:43:37.152Z,5.33
2023-05-29T04:46:37.431Z,5.33
2023-05-29T04:49:39.364Z,5.33
2023-05-29T04:52:37.168Z,4.93
2023-05-29T04:55:37.197Z,4.13
2023-05-29T04:58:37.212Z,5.53
2023-05-29T05:01:37.286Z,5.40
2023-05-29T05:04:37.526Z,5.53
2023-05-29T05:07:37.179Z,5.47
2023-05-29T05:10:37.219Z,4.93
2023-05-29T05:13:37.139Z,5.40
2023-05-29T05:16:37.388Z,5.80
2023-05-29T05:19:37.268Z,5.80
2023-05-29T05:22:38.693Z,5.53
2023-05-29T05:25:37.138Z,6.07
2023-05-29T05:28:37.245Z,4.93
2023-05-29T05:31:37.364Z,5.73
2023-05-29T05:34:37.239Z,4.20
2023-05-29T05:37:38.525Z,4.60
2023-05-29T05:40:37.204Z,4.20
2023-05-29T05:43:37.240Z,4.47
2023-05-29T05:46:37.527Z,4.47
2023-05-29T05:49:37.202Z,4.07
2023-05-29T05:52:39.118Z,5.13
2023-05-29T05:55:37.242Z,4.80
2023-05-29T05:58:37.217Z,5.60
2023-05-29T06:01:37.344Z,4.53
2023-05-29T06:04:38.233Z,4.80
2023-05-29T06:07:37.119Z,4.47
2023-05-29T06:10:37.203Z,4.53
2023-05-29T06:13:37.129Z,5.07
2023-05-29T06:16:37.345Z,3.53
2023-05-29T06:19:37.271Z,5.00
2023-05-29T06:22:37.559Z,3.53
2023-05-29T06:25:39.952Z,3.53
2023-05-29T06:28:37.266Z,4.73
2023-05-29T06:31:37.496Z,4.87
2023-05-29T06:34:37.418Z,3.47
2023-05-29T06:37:40.435Z,3.47
2023-05-29T06:40:37.197Z,3.00
2023-05-29T06:43:37.202Z,3.47
2023-05-29T06:46:37.322Z,3.13
2023-05-29T06:49:38.390Z,3.73
2023-05-29T06:52:37.165Z,3.67
2023-05-29T06:55:37.187Z,4.87
2023-05-29T06:58:47.084Z,3.73
2023-05-29T07:01:40.649Z,4.00
2023-05-29T07:04:38.009Z,4.13
2023-05-29T07:07:37.207Z,4.47
2023-05-29T07:10:37.266Z,3.87
2023-05-29T07:13:37.208Z,4.53
2023-05-29T07:16:46.053Z,3.47
2023-05-29T07:19:38.406Z,4.20
2023-05-29T07:22:37.857Z,3.13
2023-05-29T07:25:37.129Z,3.20
2023-05-29T07:28:47.127Z,4.00
2023-05-29T07:31:37.415Z,3.13
2023-05-29T07:34:37.312Z,4.07
2023-05-29T07:37:44.701Z,3.53
2023-05-29T07:40:37.260Z,3.87
2023-05-29T07:43:38.152Z,3.93
2023-05-29T07:46:37.511Z,5.00
2023-05-29T07:49:38.711Z,4.67
2023-05-29T07:52:37.300Z,4.40
2023-05-29T07:55:37.252Z,3.67
2023-05-29T07:58:37.210Z,4.93
2023-05-29T08:01:37.239Z,3.53
2023-05-29T08:04:37.829Z,4.07
2023-05-29T08:07:37.159Z,4.93
2023-05-29T08:10:37.217Z,3.67
2023-05-29T08:13:38.444Z,3.07
2023-05-29T08:16:37.510Z,3.60
2023-05-29T08:19:37.422Z,4.80
2023-05-29T08:22:37.737Z,3.00
2023-05-29T08:25:37.210Z,3.33
2023-05-29T08:28:37.356Z,3.73
2023-05-29T08:31:37.306Z,2.80
2023-05-29T08:34:40.206Z,3.27
2023-05-29T08:37:38.025Z,3.33
2023-05-29T08:40:37.367Z,3.60
2023-05-29T08:43:37.813Z,4.20
2023-05-29T08:46:37.803Z,3.93
2023-05-29T08:49:37.430Z,4.13
2023-05-29T08:52:37.288Z,3.73
2023-05-29T08:55:37.204Z,4.20
2023-05-29T08:58:37.404Z,3.53
2023-05-29T09:01:37.342Z,3.67
2023-05-29T09:04:37.701Z,3.87
2023-05-29T09:07:37.214Z,3.93
2023-05-29T09:10:38.781Z,3.07
2023-05-29T09:13:37.222Z,2.87
2023-05-29T09:16:37.561Z,3.20
2023-05-29T09:19:37.243Z,4.53
2023-05-29T09:22:39.935Z,3.80
2023-05-29T09:25:37.162Z,3.07
2023-05-29T09:28:37.232Z,3.53
2023-05-29T09:31:37.454Z,3.47
2023-05-29T09:34:38.279Z,4.00
2023-05-29T09:37:38.175Z,4.33
2023-05-29T09:40:47.063Z,3.27
2023-05-29T09:43:37.208Z,3.60
2023-05-29T09:46:37.642Z,3.87
2023-05-29T09:49:37.464Z,3.93
2023-05-29T09:52:37.747Z,4.00
2023-05-29T09:55:37.373Z,3.80
2023-05-29T09:58:37.182Z,3.67
2023-05-29T10:01:37.443Z,3.13
2023-05-29T10:04:37.983Z,2.33
2023-05-29T10:07:37.271Z,3.13
2023-05-29T10:10:37.178Z,2.73
2023-05-29T10:13:37.242Z,3.07
2023-05-29T10:16:37.396Z,3.00
2023-05-29T10:19:37.229Z,3.00
2023-05-29T10:22:37.460Z,2.93
2023-05-29T10:25:37.286Z,3.07
2023-05-29T10:28:37.297Z,2.60
2023-05-29T10:31:37.210Z,3.13
2023-05-29T10:34:37.347Z,2.73
2023-05-29T10:37:37.250Z,3.00
2023-05-29T10:40:37.235Z,3.33
2023-05-29T10:43:39.299Z,3.20
2023-05-29T10:46:37.836Z,4.27
2023-05-29T10:49:38.662Z,4.47
2023-05-29T10:52:37.258Z,3.87
2023-05-29T10:55:37.114Z,4.87
2023-05-29T10:58:37.212Z,4.60
2023-05-29T11:01:39.277Z,4.33
2023-05-29T11:04:37.747Z,4.00
2023-05-29T11:07:37.310Z,4.20
2023-05-29T11:10:37.255Z,4.67
2023-05-29T11:13:37.254Z,3.87
2023-05-29T11:16:37.313Z,2.87
2023-05-29T11:19:37.685Z,3.13
2023-05-29T11:22:37.253Z,3.47
2023-05-29T11:25:37.360Z,3.40
2023-05-29T11:28:37.293Z,2.87
2023-05-29T11:31:37.479Z,3.07
2023-05-29T11:34:37.252Z,3.87
2023-05-29T11:37:37.430Z,3.00
2023-05-29T11:40:37.225Z,3.07
2023-05-29T11:43:37.257Z,3.00
2023-05-29T11:46:37.240Z,3.80
2023-05-29T11:49:37.495Z,3.80
2023-05-29T11:52:52.996Z,3.13
2023-05-29T11:55:38.889Z,3.20
2023-05-29T11:58:37.232Z,3.20
2023-05-29T12:01:37.387Z,2.80
2023-05-29T12:04:37.554Z,3.40
2023-05-29T12:07:37.819Z,4.13
2023-05-29T12:10:37.252Z,4.00
2023-05-29T12:13:37.407Z,4.73
2023-05-29T12:16:37.270Z,3.87
2023-05-29T12:19:38.291Z,4.47
2023-05-29T12:22:37.256Z,3.40
2023-05-29T12:25:47.803Z,4.13
2023-05-29T12:28:37.550Z,3.40
2023-05-29T12:31:47.381Z,3.27
2023-05-29T12:34:37.843Z,2.87
2023-05-29T12:37:37.248Z,3.13
2023-05-29T12:40:47.127Z,3.20
2023-05-29T12:43:37.527Z,3.40
2023-05-29T12:46:37.394Z,3.33
2023-05-29T12:49:37.274Z,3.20
2023-05-29T12:52:37.290Z,3.80
2023-05-29T12:55:37.222Z,3.07
2023-05-29T12:58:37.208Z,3.20
2023-05-29T13:01:39.458Z,4.60
2023-05-29T13:04:37.787Z,3.53
2023-05-29T13:07:37.196Z,3.13
2023-05-29T13:10:37.262Z,3.00
2023-05-29T13:13:37.244Z,3.40
2023-05-29T13:16:37.305Z,3.40
2023-05-29T13:19:37.236Z,3.33
2023-05-29T13:22:37.145Z,3.60
2023-05-29T13:25:37.217Z,3.47
2023-05-29T13:28:37.107Z,3.40
2023-05-29T13:31:37.273Z,3.00
2023-05-29T13:34:37.184Z,3.20
2023-05-29T13:37:37.428Z,3.20
2023-05-29T13:40:37.591Z,3.87
2023-05-29T13:43:44.163Z,3.87
2023-05-29T13:46:37.458Z,4.07
2023-05-29T13:49:37.305Z,4.07
2023-05-29T13:52:37.203Z,4.13
2023-05-29T13:55:37.200Z,4.00
2023-05-29T13:58:37.095Z,4.27
2023-05-29T14:01:37.370Z,4.27
2023-05-29T14:04:37.760Z,4.00
2023-05-29T14:07:37.252Z,4.40
2023-05-29T14:10:37.293Z,4.00
2023-05-29T14:13:37.319Z,4.40
2023-05-29T14:16:37.672Z,4.67
2023-05-29T14:19:38.038Z,4.20
2023-05-29T14:22:37.247Z,3.80
2023-05-29T14:25:37.249Z,4.93
2023-05-29T14:28:37.223Z,4.33
2023-05-29T14:31:37.396Z,4.20
2023-05-29T14:34:37.289Z,4.33
2023-05-29T14:37:37.229Z,4.07
2023-05-29T14:40:40.267Z,4.00
2023-05-29T14:43:38.289Z,3.87
2023-05-29T14:46:37.364Z,4.40
2023-05-29T14:49:37.302Z,4.20
2023-05-29T14:52:37.179Z,4.00
2023-05-29T14:55:47.110Z,4.13
2023-05-29T14:58:38.176Z,4.27
2023-05-29T15:01:39.304Z,4.00
2023-05-29T15:04:37.887Z,4.13
2023-05-29T15:07:44.230Z,5.07
2023-05-29T15:10:37.334Z,4.47
2023-05-29T15:13:37.151Z,4.00
2023-05-29T15:16:47.168Z,4.13
2023-05-29T15:19:37.274Z,4.27
2023-05-29T15:22:37.272Z,3.87
2023-05-29T15:25:37.266Z,3.73
2023-05-29T15:28:37.594Z,4.53
2023-05-29T15:31:37.504Z,4.40
2023-05-29T15:34:37.293Z,4.27
2023-05-29T15:37:37.269Z,3.73
2023-05-29T15:40:37.153Z,4.00
2023-05-29T15:43:37.298Z,3.47
2023-05-29T15:46:37.491Z,4.47
2023-05-29T15:49:38.530Z,4.20
2023-05-29T15:52:46.755Z,4.87
2023-05-29T15:55:37.185Z,4.00
2023-05-29T15:58:37.195Z,4.13
2023-05-29T16:01:37.471Z,4.47
2023-05-29T16:04:37.475Z,4.80
2023-05-29T16:07:37.200Z,5.67
2023-05-29T16:10:37.404Z,4.47
2023-05-29T16:13:37.242Z,4.67
2023-05-29T16:16:37.439Z,4.87
2023-05-29T16:19:37.211Z,3.73
2023-05-29T16:22:43.176Z,3.47
2023-05-29T16:25:37.207Z,3.73
2023-05-29T16:28:38.273Z,4.20
2023-05-29T16:31:37.477Z,4.60
2023-05-29T16:34:37.793Z,4.27
2023-05-29T16:37:37.222Z,4.27
2023-05-29T16:40:37.321Z,4.00
2023-05-29T16:43:37.248Z,4.33
2023-05-29T16:46:37.517Z,3.80
2023-05-29T16:49:37.237Z,4.33
2023-05-29T16:52:37.629Z,3.73
2023-05-29T16:55:37.551Z,3.60
2023-05-29T16:58:37.288Z,3.33
2023-05-29T17:01:37.580Z,2.60
2023-05-29T17:04:37.477Z,2.67
2023-05-29T17:07:37.493Z,3.33
2023-05-29T17:10:37.237Z,3.80
2023-05-29T17:13:37.259Z,4.07
2023-05-29T17:16:37.299Z,3.20
2023-05-29T17:19:37.356Z,3.00
2023-05-29T17:22:37.445Z,2.53
2023-05-29T17:25:37.406Z,4.00
2023-05-29T17:28:37.243Z,4.00
2023-05-29T17:31:37.720Z,4.27
2023-05-29T17:34:37.370Z,4.07
2023-05-29T17:37:37.317Z,3.67
2023-05-29T17:40:37.191Z,4.80
2023-05-29T17:43:37.231Z,4.00
2023-05-29T17:46:37.314Z,4.67
2023-05-29T17:49:37.288Z,5.00
2023-05-29T17:52:37.260Z,4.33
2023-05-29T17:55:37.153Z,4.87
2023-05-29T17:58:37.218Z,4.00
2023-05-29T18:01:37.361Z,3.93
2023-05-29T18:04:37.782Z,2.87
2023-05-29T18:07:37.322Z,3.60
2023-05-29T18:10:37.310Z,3.47
2023-05-29T18:13:47.157Z,3.60
2023-05-29T18:16:37.515Z,4.07
2023-05-29T18:19:37.370Z,3.33
2023-05-29T18:22:37.179Z,3.00
2023-05-29T18:25:37.173Z,3.33
2023-05-29T18:28:37.463Z,3.47
2023-05-29T18:31:37.319Z,3.47
2023-05-29T18:34:37.377Z,2.80
2023-05-29T18:37:37.283Z,2.80
2023-05-29T18:40:37.208Z,2.80
2023-05-29T18:43:47.087Z,1.93
2023-05-29T18:46:37.985Z,3.00
2023-05-29T18:49:37.296Z,2.67
2023-05-29T18:52:37.107Z,2.20
2023-05-29T18:55:37.205Z,1.93
2023-05-29T18:58:37.201Z,2.20
2023-05-29T19:01:49.238Z,2.33
2023-05-29T19:04:38.121Z,2.13
2023-05-29T19:07:37.462Z,2.00
2023-05-29T19:10:37.583Z,2.00
2023-05-29T19:13:37.216Z,2.40
2023-05-29T19:16:37.509Z,1.67
2023-05-29T19:19:37.343Z,2.00
2023-05-29T19:22:37.222Z,2.13
2023-05-29T19:25:37.305Z,2.27
2023-05-29T19:28:37.735Z,2.33
2023-05-29T19:31:37.289Z,2.27
2023-05-29T19:34:37.830Z,1.33
2023-05-29T19:37:37.280Z,1.33
2023-05-29T19:40:39.708Z,1.00
2023-05-29T19:43:42.962Z,1.53
2023-05-29T19:46:47.178Z,2.13
2023-05-29T19:49:37.224Z,2.40
2023-05-29T19:52:37.285Z,2.80
2023-05-29T19:55:38.306Z,2.33
2023-05-29T19:58:37.291Z,2.40
2023-05-29T20:01:37.525Z,2.33
2023-05-29T20:04:37.991Z,2.60
2023-05-29T20:07:37.458Z,2.87
2023-05-29T20:10:37.247Z,3.33
2023-05-29T20:13:37.265Z,2.73
2023-05-29T20:16:37.326Z,3.00
2023-05-29T20:19:37.430Z,2.93
2023-05-29T20:22:38.139Z,2.13
2023-05-29T20:25:37.230Z,2.53
2023-05-29T20:28:37.684Z,2.80
2023-05-29T20:31:38.495Z,2.07
2023-05-29T20:34:37.282Z,1.93
2023-05-29T20:37:37.246Z,2.40
2023-05-29T20:40:40.524Z,2.20
2023-05-29T20:43:37.370Z,2.20
2023-05-29T20:46:37.381Z,2.20
2023-05-29T20:49:37.247Z,1.07
2023-05-29T20:52:37.410Z,1.80
2023-05-29T20:55:37.295Z,1.53
2023-05-29T20:58:37.290Z,1.73
2023-05-29T21:01:37.501Z,1.87
2023-05-29T21:04:37.799Z,2.27
2023-05-29T21:07:37.449Z,2.73
2023-05-29T21:10:37.212Z,2.27
2023-05-29T21:13:47.049Z,2.73
2023-05-29T21:16:38.985Z,2.13
2023-05-29T21:19:37.311Z,2.07
2023-05-29T21:22:37.846Z,2.53
2023-05-29T21:25:37.355Z,3.33
2023-05-29T21:28:37.197Z,3.07
2023-05-29T21:31:39.612Z,2.67
2023-05-29T21:34:37.338Z,2.80
2023-05-29T21:37:39.010Z,3.40
2023-05-29T21:40:37.179Z,3.60
2023-05-29T21:43:37.956Z,3.13
2023-05-29T21:46:37.420Z,3.33
2023-05-29T21:49:37.285Z,4.13
2023-05-29T21:52:37.288Z,3.67
2023-05-29T21:55:37.261Z,3.40
2023-05-29T21:58:37.219Z,3.33
2023-05-29T22:01:37.596Z,2.13
2023-05-29T22:04:37.600Z,3.53
2023-05-29T22:07:37.359Z,3.33
2023-05-29T22:10:37.323Z,3.40
2023-05-29T22:13:37.221Z,4.40
2023-05-29T22:16:37.397Z,3.60
2023-05-29T22:19:47.162Z,3.67
2023-05-29T22:22:37.800Z,4.20
2023-05-29T22:25:40.363Z,4.07
2023-05-29T22:28:37.208Z,3.73
2023-05-29T22:31:37.493Z,3.27
2023-05-29T22:34:37.359Z,4.00
2023-05-29T22:37:37.205Z,4.40
2023-05-29T22:40:37.194Z,4.20
2023-05-29T22:43:37.533Z,4.47
2023-05-29T22:46:37.463Z,2.87
2023-05-29T22:49:37.169Z,4.20
2023-05-29T22:52:37.604Z,4.47
2023-05-29T22:55:37.222Z,3.67
2023-05-29T22:58:40.599Z,3.13
2023-05-29T23:01:37.352Z,3.33
2023-05-29T23:04:37.990Z,3.60
2023-05-29T23:07:37.163Z,2.40
2023-05-29T23:10:37.296Z,3.87
2023-05-29T23:13:37.261Z,3.47
2023-05-29T23:16:37.372Z,3.67
2023-05-29T23:19:37.355Z,4.27
2023-05-29T23:22:37.749Z,3.07
2023-05-29T23:25:37.274Z,3.47
2023-05-29T23:28:37.208Z,4.00
2023-05-29T23:31:37.269Z,3.73
2023-05-29T23:34:37.331Z,4.33
2023-05-29T23:37:37.232Z,4.33
2023-05-29T23:40:37.142Z,4.40
2023-05-29T23:43:37.180Z,4.27
2023-05-29T23:46:37.527Z,4.20
2023-05-29T23:49:37.352Z,3.93
2023-05-29T23:52:37.688Z,3.80
2023-05-29T23:55:37.284Z,3.73
2023-05-29T23:58:37.203Z,4.40
